Time;durP1;ratioP1;P1;durP2;ratioP2;P2;SDS_P1;SDS_P2;PMS_P1;PMS_P2;Temp;Humidity;BMP_temperature;BMP_pressure;BME280_temperature;BME280_humidity;BME280_pressure;Samples;Min_cycle;Max_cycle;Signal;HPM_P1;HPM_P2
2023/08/15 00:02:31;;;;;;;7.05;6.00;;;;;;;25.07;40.32;95332.31;6227728;27;108878;-64
2023/08/15 00:05:37;;;;;;;6.47;5.93;;;;;;;25.09;40.35;95338.94;6246341;27;109190;-63
2023/08/15 00:08:40;;;;;;;7.00;6.07;;;;;;;25.15;40.20;95331.50;6238887;27;109106;-62
2023/08/15 00:11:44;;;;;;;6.63;6.03;;;;;;;25.12;40.08;95326.78;6235236;27;109174;-63
2023/08/15 00:14:47;;;;;;;6.40;5.65;;;;;;;25.10;39.82;95326.31;6243412;27;110055;-65
2023/08/15 00:17:51;;;;;;;6.82;6.22;;;;;;;25.12;39.88;95323.31;6259214;27;109184;-64
2023/08/15 00:20:54;;;;;;;6.70;6.00;;;;;;;25.17;40.29;95317.78;6237526;27;110032;-63
2023/08/15 00:23:57;;;;;;;7.00;6.40;;;;;;;25.22;39.78;95309.63;6236934;27;109128;-63
2023/08/15 00:27:01;;;;;;;6.95;6.25;;;;;;;25.15;39.82;95310.09;6250917;27;111104;-64
2023/08/15 00:30:06;;;;;;;7.37;6.40;;;;;;;25.11;39.96;95303.00;6259424;27;110402;-65
2023/08/15 00:33:09;;;;;;;6.65;6.05;;;;;;;25.12;39.76;95304.59;6245231;27;109018;-63
2023/08/15 00:36:12;;;;;;;6.85;6.25;;;;;;;25.06;40.46;95302.09;6245940;27;108984;-63
2023/08/15 00:39:15;;;;;;;6.57;5.97;;;;;;;25.08;39.83;95299.09;6247829;27;109331;-62
2023/08/15 00:42:20;;;;;;;6.80;6.15;;;;;;;25.04;40.12;95293.59;6241568;27;109999;-63
2023/08/15 00:45:23;;;;;;;7.00;6.30;;;;;;;24.99;40.12;95292.94;6234815;27;109382;-63
2023/08/15 00:48:29;;;;;;;7.10;6.50;;;;;;;24.96;40.13;95288.22;6227806;27;110538;-62
2023/08/15 00:51:33;;;;;;;9.38;7.80;;;;;;;24.90;40.22;95284.94;6246723;27;108999;-62
2023/08/15 00:54:37;;;;;;;7.43;6.72;;;;;;;24.81;40.38;95283.38;6239437;27;109904;-62
2023/08/15 00:57:41;;;;;;;7.40;6.60;;;;;;;24.76;40.09;95270.94;6235672;27;110478;-62
2023/08/15 01:00:45;;;;;;;7.57;6.72;;;;;;;24.82;39.92;95272.34;6228921;27;109776;-63
2023/08/15 01:03:49;;;;;;;9.35;8.55;;;;;;;24.88;40.14;95263.06;6236016;27;109197;-62
2023/08/15 01:06:52;;;;;;;8.63;7.85;;;;;;;24.87;39.81;95266.06;6242584;27;109045;-63
2023/08/15 01:09:55;;;;;;;8.50;7.70;;;;;;;24.94;40.51;95259.09;6223571;27;110950;-63
2023/08/15 01:13:07;;;;;;;8.10;7.40;;;;;;;25.00;40.11;95263.16;6236918;27;109922;-63
2023/08/15 01:16:16;;;;;;;11.20;10.10;;;;;;;24.91;40.26;95262.41;6241807;27;109063;-63
2023/08/15 01:19:29;;;;;;;7.47;6.77;;;;;;;24.74;40.61;95263.22;6253302;27;109101;-62
2023/08/15 01:22:37;;;;;;;7.15;6.45;;;;;;;24.69;40.57;95254.56;6249467;27;110334;-63
2023/08/15 01:25:43;;;;;;;8.15;5.95;;;;;;;24.69;40.54;95259.91;6254515;27;109832;-62
2023/08/15 01:28:46;;;;;;;7.10;6.40;;;;;;;24.68;40.57;95259.13;6249770;27;109100;-61
2023/08/15 01:31:58;;;;;;;8.70;7.90;;;;;;;24.77;40.47;95259.13;6244880;27;109218;-63
2023/08/15 01:35:06;;;;;;;8.63;7.72;;;;;;;24.86;40.49;95259.88;6233406;27;109023;-62
2023/08/15 01:38:15;;;;;;;8.50;7.70;;;;;;;24.83;40.89;95259.75;6243902;27;111530;-62
2023/08/15 01:41:24;;;;;;;7.80;7.10;;;;;;;24.91;40.84;95249.03;6237924;27;109138;-62
2023/08/15 01:44:30;;;;;;;7.77;7.07;;;;;;;24.98;41.07;95262.69;6226310;27;109397;-63
2023/08/15 01:47:33;;;;;;;6.60;6.10;;;;;;;24.87;41.40;95250.00;6238347;27;109177;-65
2023/08/15 01:50:36;;;;;;;8.75;7.00;;;;;;;24.82;40.85;95245.56;6260987;27;111038;-65
2023/08/15 01:53:39;;;;;;;7.03;6.40;;;;;;;24.81;41.10;95244.00;6252184;27;109102;-64
2023/08/15 01:56:44;;;;;;;6.53;5.90;;;;;;;24.75;41.11;95248.75;6248417;27;109444;-64
2023/08/15 01:59:47;;;;;;;6.65;6.05;;;;;;;24.69;41.14;95243.84;6253071;27;111518;-64
2023/08/15 02:02:50;;;;;;;6.65;6.05;;;;;;;24.63;41.15;95237.88;6253351;27;109166;-65
2023/08/15 02:05:53;;;;;;;6.80;6.20;;;;;;;24.60;41.30;95237.72;6232185;27;110014;-64
2023/08/15 02:08:56;;;;;;;7.00;6.20;;;;;;;24.64;41.62;95239.44;6237957;27;110327;-63
2023/08/15 02:12:01;;;;;;;7.60;6.80;;;;;;;24.62;41.16;95227.47;6237423;27;109325;-65
2023/08/15 02:15:04;;;;;;;6.97;6.38;;;;;;;24.61;41.19;95228.59;6240186;27;109151;-64
2023/08/15 02:18:07;;;;;;;6.93;6.35;;;;;;;24.66;41.23;95217.69;6226709;27;110092;-64
2023/08/15 02:21:11;;;;;;;7.40;6.60;;;;;;;24.66;41.59;95225.72;6237975;27;108948;-65
2023/08/15 02:24:14;;;;;;;7.47;6.68;;;;;;;24.74;41.26;95230.31;6247135;27;109091;-65
2023/08/15 02:27:18;;;;;;;7.68;6.50;;;;;;;24.72;41.60;95235.22;6258695;27;109189;-63
2023/08/15 02:30:22;;;;;;;6.97;6.30;;;;;;;24.80;41.20;95242.44;6232374;27;109076;-62
2023/08/15 02:33:25;;;;;;;7.70;6.20;;;;;;;24.78;41.25;95242.75;6262005;27;109269;-63
2023/08/15 02:36:28;;;;;;;6.80;6.10;;;;;;;24.88;40.95;95238.97;6243216;27;109493;-63
2023/08/15 02:39:31;;;;;;;6.80;6.10;;;;;;;24.94;40.98;95245.72;6230609;27;110895;-64
2023/08/15 02:42:36;;;;;;;7.00;6.30;;;;;;;24.87;40.92;95244.63;6247911;27;110184;-65
2023/08/15 02:45:39;;;;;;;6.75;6.15;;;;;;;24.82;41.12;95237.53;6257433;27;108944;-64
2023/08/15 02:48:42;;;;;;;7.38;6.40;;;;;;;24.81;40.98;95227.94;6242479;27;109108;-64
2023/08/15 02:51:45;;;;;;;6.57;5.97;;;;;;;24.83;41.46;95231.09;6226565;27;109053;-64
2023/08/15 02:54:49;;;;;;;6.28;5.70;;;;;;;24.90;41.15;95233.28;6254273;27;109293;-63
2023/08/15 02:57:53;;;;;;;6.55;5.95;;;;;;;24.91;41.40;95222.25;6240523;27;109339;-69
2023/08/15 03:00:56;;;;;;;6.40;5.80;;;;;;;25.00;40.90;95232.94;6244684;27;109032;-70
2023/08/15 03:03:59;;;;;;;6.88;6.28;;;;;;;25.04;41.02;95228.53;6237363;27;109514;-71
2023/08/15 03:07:02;;;;;;;6.43;5.90;;;;;;;25.05;40.97;95230.88;6247986;27;110035;-70
2023/08/15 03:10:06;;;;;;;6.80;6.20;;;;;;;25.07;41.07;95228.66;6249944;27;109158;-71
2023/08/15 03:13:11;;;;;;;6.93;6.32;;;;;;;25.08;41.27;95240.94;6247698;27;109211;-70
2023/08/15 03:16:14;;;;;;;7.00;6.30;;;;;;;25.11;41.35;95239.53;6236221;27;110290;-64
2023/08/15 03:19:17;;;;;;;6.43;5.83;;;;;;;25.13;40.87;95231.94;6245477;27;109107;-64
2023/08/15 03:22:20;;;;;;;6.05;5.45;;;;;;;25.09;40.87;95234.50;6242451;27;109840;-64
2023/08/15 03:25:23;;;;;;;6.93;6.22;;;;;;;25.02;41.23;95241.44;6227877;27;109351;-65
2023/08/15 03:28:28;;;;;;;6.80;6.30;;;;;;;24.91;41.37;95248.25;6240808;27;108969;-64
2023/08/15 03:31:31;;;;;;;6.82;6.13;;;;;;;24.78;41.72;95247.31;6242074;27;109088;-65
2023/08/15 03:34:34;;;;;;;9.00;8.20;;;;;;;24.81;41.67;95245.91;6245797;27;109624;-64
2023/08/15 03:37:37;;;;;;;17.63;16.10;;;;;;;24.90;41.66;95244.78;6235625;27;109180;-64
2023/08/15 03:40:40;;;;;;;18.37;16.97;;;;;;;24.98;41.07;95241.28;6246400;27;109041;-64
2023/08/15 03:43:45;;;;;;;8.33;7.53;;;;;;;24.99;41.08;95244.75;6248933;27;110714;-65
2023/08/15 03:46:48;;;;;;;7.68;6.88;;;;;;;24.86;41.51;95246.50;6246356;27;109032;-64
2023/08/15 03:49:51;;;;;;;7.00;6.30;;;;;;;24.84;41.65;95246.03;6238528;27;109731;-64
2023/08/15 03:52:54;;;;;;;7.00;6.40;;;;;;;24.87;41.49;95255.34;6253632;27;110785;-65
2023/08/15 03:55:57;;;;;;;8.13;7.10;;;;;;;24.96;40.87;95243.50;6245327;27;109917;-64
2023/08/15 03:59:02;;;;;;;8.00;7.20;;;;;;;25.00;41.38;95249.00;6247544;27;109049;-65
2023/08/15 04:02:06;;;;;;;8.30;7.50;;;;;;;25.00;41.07;95244.44;6236434;27;109033;-65
2023/08/15 04:05:09;;;;;;;7.97;7.30;;;;;;;24.98;41.11;95252.00;6241599;27;109402;-64
2023/08/15 04:08:15;;;;;;;7.57;6.80;;;;;;;24.87;41.45;95255.34;6243779;27;109157;-62
2023/08/15 04:11:19;;;;;;;8.30;7.40;;;;;;;24.89;41.41;95253.13;6233963;27;111676;-64
2023/08/15 04:14:23;;;;;;;8.05;7.35;;;;;;;24.85;41.93;95249.50;6240534;27;109425;-62
2023/08/15 04:17:27;;;;;;;9.33;7.80;;;;;;;24.87;41.67;95250.78;6251123;27;109104;-61
2023/08/15 04:20:30;;;;;;;8.65;7.85;;;;;;;24.86;41.47;95248.41;6254406;27;109250;-63
2023/08/15 04:23:33;;;;;;;8.40;7.60;;;;;;;24.93;41.50;95244.13;6231269;27;109244;-62
2023/08/15 04:26:36;;;;;;;8.73;7.82;;;;;;;24.95;41.61;95251.84;6252387;27;112619;-62
2023/08/15 04:29:41;;;;;;;8.00;7.10;;;;;;;24.95;41.67;95246.50;6241464;27;109132;-63
2023/08/15 04:32:44;;;;;;;7.40;6.70;;;;;;;24.91;41.90;95257.06;6246414;27;109115;-63
2023/08/15 04:35:47;;;;;;;7.60;6.90;;;;;;;24.68;41.72;95261.00;6233717;27;109087;-63
2023/08/15 04:38:50;;;;;;;8.07;7.28;;;;;;;24.57;42.30;95273.13;6243076;27;109212;-63
2023/08/15 04:41:53;;;;;;;7.50;6.70;;;;;;;24.51;42.28;95277.84;6243986;27;109119;-63
2023/08/15 04:44:57;;;;;;;8.60;7.80;;;;;;;24.56;42.16;95276.91;6237480;27;109036;-63
2023/08/15 04:48:00;;;;;;;8.77;8.02;;;;;;;24.54;42.27;95290.63;6233135;27;109061;-62
2023/08/15 04:51:04;;;;;;;8.88;7.97;;;;;;;24.49;42.91;95272.81;6251675;27;109425;-62
2023/08/15 04:54:07;;;;;;;11.50;10.40;;;;;;;24.47;43.05;95285.72;6247177;27;109180;-63
2023/08/15 04:57:10;;;;;;;12.02;8.10;;;;;;;24.56;42.72;95277.69;6237770;27;109668;-63
2023/08/15 05:00:19;;;;;;;9.52;8.63;;;;;;;24.63;42.55;95291.38;6249483;27;110195;-62
2023/08/15 05:03:22;;;;;;;8.80;8.00;;;;;;;24.65;42.85;95285.72;6243900;27;108975;-62
2023/08/15 05:06:25;;;;;;;20.10;18.40;;;;;;;24.71;43.18;95300.56;6264113;27;109290;-62
2023/08/15 05:09:29;;;;;;;15.68;13.68;;;;;;;24.66;42.96;95293.41;6235951;27;109334;-63
2023/08/15 05:12:32;;;;;;;9.88;8.90;;;;;;;24.74;42.73;95303.38;6260424;27;109524;-64
2023/08/15 05:15:37;;;;;;;10.10;9.10;;;;;;;24.76;42.61;95308.41;6238482;27;109299;-63
2023/08/15 05:18:40;;;;;;;10.90;9.90;;;;;;;24.85;42.49;95306.50;6237814;27;109184;-65
2023/08/15 05:21:43;;;;;;;12.03;10.93;;;;;;;25.01;42.37;95304.91;6238149;27;109423;-64
2023/08/15 05:24:46;;;;;;;12.97;11.80;;;;;;;25.06;42.23;95315.47;6263535;27;109221;-65
2023/08/15 05:27:49;;;;;;;13.10;11.80;;;;;;;25.11;42.79;95319.06;6256803;27;109330;-65
2023/08/15 05:30:54;;;;;;;13.43;11.20;;;;;;;25.05;42.55;95311.22;6246672;27;109786;-63
2023/08/15 05:33:58;;;;;;;9.90;8.90;;;;;;;24.89;42.60;95304.78;6255828;27;109678;-63
2023/08/15 05:37:01;;;;;;;8.57;7.72;;;;;;;24.72;42.51;95307.47;6243448;27;110199;-64
2023/08/15 05:40:05;;;;;;;8.80;7.70;;;;;;;24.05;44.13;95310.53;6244219;27;110176;-64
2023/08/15 05:43:08;;;;;;;8.43;6.70;;;;;;;24.33;42.81;95314.50;6246116;27;110922;-64
2023/08/15 05:46:13;;;;;;;7.38;6.57;;;;;;;24.47;42.70;95314.34;6244759;27;109375;-64
2023/08/15 05:49:16;;;;;;;7.53;6.13;;;;;;;24.46;42.73;95312.78;6239267;27;109501;-62
2023/08/15 05:52:19;;;;;;;6.97;6.27;;;;;;;24.41;42.75;95308.38;6238210;27;109279;-63
2023/08/15 05:55:22;;;;;;;8.30;6.40;;;;;;;24.39;42.69;95315.16;6228261;27;109680;-64
2023/08/15 05:58:25;;;;;;;8.50;6.10;;;;;;;24.36;42.88;95311.22;6239487;27;110477;-64
2023/08/15 06:01:30;;;;;;;9.90;6.57;;;;;;;24.39;42.85;95315.94;6247014;27;109584;-64
2023/08/15 06:04:33;;;;;;;10.48;6.10;;;;;;;24.21;43.59;95305.53;6243110;27;110534;-63
2023/08/15 06:07:36;;;;;;;6.63;6.03;;;;;;;23.89;43.93;95316.28;6243058;27;111877;-64
2023/08/15 06:10:39;;;;;;;7.25;6.20;;;;;;;23.92;44.11;95316.75;6250128;27;109731;-64
2023/08/15 06:13:42;;;;;;;10.43;5.95;;;;;;;24.14;44.43;95319.34;6245297;27;110777;-64
2023/08/15 06:16:47;;;;;;;9.00;6.40;;;;;;;24.34;44.05;95313.41;6238673;27;109812;-64
2023/08/15 06:19:50;;;;;;;6.70;6.10;;;;;;;24.43;43.45;95321.44;6244944;27;109479;-63
2023/08/15 06:22:53;;;;;;;5.78;5.10;;;;;;;24.22;43.94;95315.91;6245938;27;109132;-63
2023/08/15 06:25:56;;;;;;;8.88;6.00;;;;;;;23.90;44.58;95319.75;6278714;27;109324;-63
2023/08/15 06:28:59;;;;;;;8.32;6.18;;;;;;;24.17;44.77;95324.06;6273494;27;108879;-63
2023/08/15 06:32:06;;;;;;;7.40;6.40;;;;;;;24.21;44.80;95327.72;6237362;27;110085;-65
2023/08/15 06:35:12;;;;;;;8.85;7.30;;;;;;;24.25;44.85;95326.00;6246392;27;108933;-64
2023/08/15 06:38:15;;;;;;;9.70;7.32;;;;;;;24.12;45.31;95321.56;6245405;27;109211;-64
2023/08/15 06:41:18;;;;;;;8.32;6.43;;;;;;;23.84;46.40;95324.44;6231205;27;109231;-65
2023/08/15 06:44:22;;;;;;;8.30;7.07;;;;;;;23.86;46.23;95334.84;6241210;27;109405;-65
2023/08/15 06:47:28;;;;;;;8.18;6.97;;;;;;;24.02;46.17;95332.53;6262419;27;109000;-64
2023/08/15 06:50:32;;;;;;;8.80;7.50;;;;;;;24.36;45.42;95342.50;6237784;27;109138;-65
2023/08/15 06:53:35;;;;;;;11.18;9.75;;;;;;;24.45;45.32;95336.06;6236811;27;109474;-64
2023/08/15 06:56:38;;;;;;;10.10;9.20;;;;;;;24.54;45.35;95343.34;6279242;27;109158;-63
2023/08/15 06:59:41;;;;;;;11.30;10.30;;;;;;;24.56;45.24;95336.56;6275036;27;108994;-64
2023/08/15 07:02:45;;;;;;;11.80;9.90;;;;;;;24.63;45.30;95328.06;6225815;27;110049;-65
2023/08/15 07:05:49;;;;;;;10.10;8.77;;;;;;;24.67;44.77;95323.66;6236307;27;108880;-64
2023/08/15 07:08:53;;;;;;;17.45;15.95;;;;;;;24.67;45.27;95334.34;6236677;27;109254;-64
2023/08/15 07:11:56;;;;;;;13.50;10.17;;;;;;;24.65;45.49;95337.34;6236059;27;109254;-65
2023/08/15 07:14:59;;;;;;;10.53;8.70;;;;;;;24.73;45.36;95333.94;6226497;27;109180;-65
2023/08/15 07:18:04;;;;;;;11.45;9.38;;;;;;;24.79;45.09;95334.53;6236327;27;109227;-64
2023/08/15 07:21:08;;;;;;;12.20;11.10;;;;;;;24.84;44.92;95330.91;6237050;27;110218;-65
2023/08/15 07:24:12;;;;;;;12.55;11.35;;;;;;;24.95;45.41;95338.31;6231056;27;108961;-66
2023/08/15 07:27:15;;;;;;;15.15;13.65;;;;;;;24.99;45.42;95341.13;6232202;27;109222;-63
2023/08/15 07:30:18;;;;;;;16.77;15.38;;;;;;;25.07;45.10;95346.50;6236670;27;108909;-64
2023/08/15 07:33:23;;;;;;;10.93;8.93;;;;;;;25.08;44.84;95331.22;6236506;27;109107;-64
2023/08/15 07:36:26;;;;;;;14.52;13.13;;;;;;;25.03;45.73;95347.44;6226304;27;109641;-64
2023/08/15 07:39:29;;;;;;;14.75;13.35;;;;;;;25.06;45.53;95349.50;6236235;28;108853;-64
2023/08/15 07:42:32;;;;;;;16.30;15.00;;;;;;;25.14;45.62;95347.91;6235852;27;109051;-64
2023/08/15 07:45:35;;;;;;;16.90;15.32;;;;;;;25.03;45.89;95347.44;6235576;27;109230;-64
2023/08/15 07:48:40;;;;;;;14.05;12.65;;;;;;;24.93;46.16;95350.44;6225738;27;109465;-64
2023/08/15 07:51:43;;;;;;;11.93;10.83;;;;;;;24.89;45.86;95349.50;6236393;27;112067;-63
2023/08/15 07:54:47;;;;;;;11.23;10.23;;;;;;;24.94;45.54;95336.75;6240095;27;109828;-63
2023/08/15 07:57:50;;;;;;;12.30;11.10;;;;;;;24.74;46.86;95337.38;6242200;27;109556;-64
2023/08/15 08:00:53;;;;;;;9.70;8.80;;;;;;;24.75;47.04;95337.06;6226877;27;109195;-63
2023/08/15 08:03:57;;;;;;;9.38;8.50;;;;;;;24.98;46.27;95332.31;6234671;27;109607;-62
2023/08/15 08:07:01;;;;;;;11.10;10.00;;;;;;;24.96;45.92;95337.22;6235150;27;108948;-63
2023/08/15 08:10:05;;;;;;;11.30;9.50;;;;;;;24.95;46.47;95343.66;6223981;27;109270;-63
2023/08/15 08:13:11;;;;;;;11.07;9.90;;;;;;;25.01;46.60;95341.59;6252012;27;109213;-63
2023/08/15 08:16:17;;;;;;;12.10;11.00;;;;;;;24.95;48.76;95343.66;6260504;27;108958;-64
2023/08/15 08:19:21;;;;;;;15.00;11.00;;;;;;;24.98;48.00;95339.56;6260769;27;109030;-63
2023/08/15 08:22:25;;;;;;;11.85;10.65;;;;;;;25.10;47.38;95337.03;6225368;27;109059;-62
2023/08/15 08:25:28;;;;;;;9.52;8.57;;;;;;;24.95;47.75;95343.66;6237714;27;108937;-61
2023/08/15 08:28:31;;;;;;;12.60;9.20;;;;;;;25.11;47.57;95340.50;6238850;27;109342;-62
2023/08/15 08:31:34;;;;;;;11.37;8.70;;;;;;;25.30;47.08;95338.25;6241914;27;110395;-64
2023/08/15 08:34:39;;;;;;;9.40;7.80;;;;;;;25.33;47.48;95334.94;6235754;27;109098;-64
2023/08/15 08:37:42;;;;;;;7.65;7.05;;;;;;;25.33;46.76;95337.63;6257723;27;111865;-64
2023/08/15 08:40:47;;;;;;;9.23;7.70;;;;;;;25.37;46.46;95334.03;6237434;27;109671;-65
2023/08/15 08:43:50;;;;;;;9.38;7.80;;;;;;;25.40;46.92;95332.59;6237373;27;109132;-65
2023/08/15 08:46:53;;;;;;;15.10;11.40;;;;;;;25.39;47.46;95331.03;6232422;27;109565;-62
2023/08/15 08:50:01;;;;;;;15.93;9.98;;;;;;;25.44;46.83;95322.81;6234299;27;109576;-68
2023/08/15 08:53:04;;;;;;;11.60;10.40;;;;;;;25.45;46.80;95327.06;6234699;27;109374;-62
2023/08/15 08:56:08;;;;;;;12.68;11.40;;;;;;;25.45;46.80;95324.38;6230469;27;110938;-62
2023/08/15 08:59:12;;;;;;;12.70;11.50;;;;;;;25.40;46.75;95321.09;6260174;27;109086;-63
2023/08/15 09:02:20;;;;;;;11.10;10.00;;;;;;;25.35;46.50;95319.34;6253371;27;108995;-66
2023/08/15 09:05:26;;;;;;;9.52;8.52;;;;;;;25.31;46.29;95321.84;6247476;27;108776;-63
2023/08/15 09:08:29;;;;;;;9.40;8.50;;;;;;;25.30;46.74;95325.66;6225027;27;110517;-62
2023/08/15 09:11:36;;;;;;;11.00;9.77;;;;;;;25.28;46.68;95324.41;6233850;27;109494;-63
2023/08/15 09:14:41;;;;;;;11.85;10.65;;;;;;;25.25;46.61;95327.72;6234170;27;109259;-64
2023/08/15 09:17:44;;;;;;;12.20;11.00;;;;;;;25.28;46.19;95317.16;6228084;27;108972;-64
2023/08/15 09:20:49;;;;;;;11.48;10.27;;;;;;;25.31;46.14;95321.84;6227113;27;109572;-64
2023/08/15 09:23:52;;;;;;;12.02;11.02;;;;;;;25.32;46.35;95317.28;6248367;27;109593;-64
2023/08/15 09:26:56;;;;;;;12.40;11.27;;;;;;;25.28;46.50;95313.69;6237631;27;109123;-64
2023/08/15 09:30:07;;;;;;;10.88;9.77;;;;;;;25.28;47.71;95325.19;6234042;27;110141;-64
2023/08/15 09:33:15;;;;;;;11.80;10.70;;;;;;;25.36;46.71;95319.03;6246049;27;108666;-64
2023/08/15 09:36:19;;;;;;;11.80;10.60;;;;;;;25.34;47.04;95317.75;6258330;27;109216;-64
2023/08/15 09:39:23;;;;;;;10.65;9.07;;;;;;;25.27;47.05;95306.75;6237084;27;109514;-63
2023/08/15 09:42:26;;;;;;;10.00;8.63;;;;;;;25.27;46.90;95306.75;6235666;27;109543;-63
2023/08/15 09:45:30;;;;;;;16.67;15.17;;;;;;;25.26;46.74;95302.50;6246244;27;110475;-63
2023/08/15 09:48:34;;;;;;;17.33;15.83;;;;;;;25.15;47.48;95306.63;6243025;27;109111;-63
2023/08/15 09:51:38;;;;;;;11.88;10.73;;;;;;;25.06;47.33;95307.44;6239873;27;109549;-63
2023/08/15 09:54:43;;;;;;;12.47;10.93;;;;;;;25.12;47.53;95299.22;6231193;27;109127;-64
2023/08/15 09:57:46;;;;;;;11.95;10.95;;;;;;;25.23;46.66;95305.81;6246165;27;109176;-62
2023/08/15 10:00:51;;;;;;;12.60;11.30;;;;;;;25.28;46.50;95292.25;6241273;27;109058;-64
2023/08/15 10:03:58;;;;;;;12.45;11.35;;;;;;;25.30;46.80;95288.16;6225181;27;108908;-63
2023/08/15 10:07:03;;;;;;;12.60;11.30;;;;;;;25.32;46.93;95296.63;6237026;27;109741;-66
2023/08/15 10:10:08;;;;;;;12.40;11.30;;;;;;;25.36;46.86;95302.97;6246943;27;109280;-65
2023/08/15 10:13:12;;;;;;;12.18;11.05;;;;;;;25.37;46.90;95303.75;6247410;27;109223;-63
2023/08/15 10:16:15;;;;;;;12.73;11.43;;;;;;;25.35;47.01;95300.59;6231724;27;109792;-63
2023/08/15 10:19:18;;;;;;;12.50;11.20;;;;;;;25.34;47.27;95296.31;6252609;27;109218;-65
2023/08/15 10:22:23;;;;;;;12.10;10.90;;;;;;;25.34;47.10;95307.03;6238342;27;109137;-65
2023/08/15 10:25:35;;;;;;;12.00;10.80;;;;;;;25.35;47.13;95303.28;6253743;27;110204;-65
2023/08/15 10:28:41;;;;;;;11.70;10.70;;;;;;;25.40;47.33;95310.38;6233245;27;109344;-65
2023/08/15 10:31:44;;;;;;;11.57;10.60;;;;;;;25.40;46.99;95299.66;6243888;27;109864;-64
2023/08/15 10:34:53;;;;;;;16.38;14.95;;;;;;;25.30;46.95;95301.53;6259618;27;110187;-64
2023/08/15 10:37:58;;;;;;;10.98;9.95;;;;;;;25.21;47.20;95305.38;6232764;27;109450;-64
2023/08/15 10:41:03;;;;;;;12.10;11.10;;;;;;;25.27;47.67;95298.72;6250133;27;109368;-64
2023/08/15 10:44:07;;;;;;;12.30;11.20;;;;;;;25.36;47.59;95304.84;6248837;27;109211;-65
2023/08/15 10:47:23;;;;;;;11.45;10.30;;;;;;;25.44;47.36;95303.25;6260720;27;109442;-63
2023/08/15 10:50:26;;;;;;;11.60;10.40;;;;;;;25.52;47.49;95307.78;6234915;27;109525;-62
2023/08/15 10:53:31;;;;;;;11.83;10.63;;;;;;;25.61;47.23;95303.19;6235973;27;109713;-64
2023/08/15 10:56:36;;;;;;;12.18;11.07;;;;;;;25.69;46.83;95308.50;6247480;27;110397;-70
2023/08/15 10:59:39;;;;;;;11.48;10.27;;;;;;;25.73;47.16;95314.03;6260582;27;110100;-69
2023/08/15 11:02:43;;;;;;;11.07;10.18;;;;;;;25.76;46.86;95308.03;6251319;27;109002;-69
2023/08/15 11:05:46;;;;;;;10.80;9.70;;;;;;;25.76;47.43;95316.06;6259306;27;109017;-69
2023/08/15 11:08:54;;;;;;;11.40;10.20;;;;;;;25.74;47.00;95310.25;6258496;27;109158;-62
2023/08/15 11:12:05;;;;;;;10.38;9.48;;;;;;;25.77;46.86;95314.94;6246549;27;109128;-61
2023/08/15 11:15:10;;;;;;;10.52;9.52;;;;;;;25.81;46.98;95315.88;6235423;27;109012;-62
2023/08/15 11:18:20;;;;;;;10.30;9.38;;;;;;;25.88;46.71;95315.38;6243793;27;109095;-62
2023/08/15 11:21:28;;;;;;;9.45;8.65;;;;;;;25.89;46.66;95311.59;6245054;27;109041;-62
2023/08/15 11:24:33;;;;;;;9.80;9.00;;;;;;;25.88;46.61;95304.66;6230845;27;109138;-62
2023/08/15 11:27:40;;;;;;;10.02;9.00;;;;;;;25.90;46.50;95302.44;6259992;27;110705;-62
2023/08/15 11:30:44;;;;;;;9.63;8.73;;;;;;;25.94;46.31;95296.09;6239062;27;110027;-62
2023/08/15 11:33:50;;;;;;;9.57;8.67;;;;;;;25.91;46.53;95295.97;6244299;27;109644;-63
2023/08/15 11:36:53;;;;;;;10.73;8.80;;;;;;;25.80;46.61;95313.53;6236685;27;109248;-62
2023/08/15 11:39:58;;;;;;;9.43;8.52;;;;;;;25.84;46.22;95309.88;6245649;27;110213;-62
2023/08/15 11:43:02;;;;;;;8.90;8.00;;;;;;;25.90;46.06;95318.53;6239767;27;110822;-61
2023/08/15 11:46:07;;;;;;;9.40;8.50;;;;;;;25.93;46.03;95317.88;6225873;27;109519;-62
2023/08/15 11:49:16;;;;;;;10.77;7.80;;;;;;;25.94;46.17;95308.72;6244823;27;109013;-62
2023/08/15 11:52:19;;;;;;;8.70;7.90;;;;;;;25.99;45.93;95317.34;6249637;27;108982;-62
2023/08/15 11:55:25;;;;;;;8.35;7.65;;;;;;;25.99;46.18;95313.88;6245244;27;109091;-61
2023/08/15 11:58:30;;;;;;;9.00;8.10;;;;;;;26.00;45.95;95328.91;6240442;27;109237;-61
2023/08/15 12:01:42;;;;;;;9.45;7.90;;;;;;;25.95;46.04;95321.00;6260423;27;109363;-63
2023/08/15 12:04:48;;;;;;;10.30;7.90;;;;;;;25.96;45.96;95317.22;6260959;27;109347;-62
2023/08/15 12:07:51;;;;;;;8.32;7.63;;;;;;;25.99;45.74;95316.56;6254448;27;108956;-66
2023/08/15 12:10:56;;;;;;;9.10;8.30;;;;;;;25.98;45.69;95309.63;6233491;27;108904;-62
2023/08/15 12:13:59;;;;;;;8.47;7.70;;;;;;;25.95;45.70;95311.06;6235133;28;110038;-61
2023/08/15 12:17:05;;;;;;;8.45;7.65;;;;;;;25.95;45.95;95326.38;6242514;27;108735;-64
2023/08/15 12:20:11;;;;;;;9.10;7.55;;;;;;;25.88;46.18;95318.06;6225847;27;110310;-60
2023/08/15 12:23:14;;;;;;;8.10;7.40;;;;;;;25.91;46.16;95325.47;6240081;27;109026;-62
2023/08/15 12:26:30;;;;;;;9.07;7.88;;;;;;;25.82;46.07;95327.38;6247218;27;109253;-64
2023/08/15 12:29:33;;;;;;;9.50;8.50;;;;;;;25.71;46.57;95326.16;6259318;27;109309;-63
2023/08/15 12:32:56;;;;;;;9.30;8.30;;;;;;;25.76;46.76;95332.16;6234732;27;109684;-62
2023/08/15 12:35:59;;;;;;;8.60;7.70;;;;;;;25.90;46.62;95326.56;6254258;27;109085;-62
2023/08/15 12:39:03;;;;;;;9.13;8.43;;;;;;;25.92;46.40;95327.81;6241826;27;110346;-62
2023/08/15 12:42:07;;;;;;;8.30;7.60;;;;;;;25.97;46.38;95334.88;6248107;27;109150;-63
2023/08/15 12:45:11;;;;;;;8.63;7.83;;;;;;;26.03;46.42;95338.97;6236079;27;109168;-65
2023/08/15 12:48:14;;;;;;;9.10;8.20;;;;;;;26.04;46.24;95327.13;6257843;27;109105;-62
2023/08/15 12:51:17;;;;;;;8.23;7.43;;;;;;;26.06;46.24;95333.00;6249214;27;109526;-62
2023/08/15 12:54:20;;;;;;;7.80;7.20;;;;;;;26.02;46.42;95331.25;6222851;27;109092;-63
2023/08/15 12:57:25;;;;;;;7.60;7.00;;;;;;;26.00;46.57;95334.25;6246506;27;109334;-63
2023/08/15 13:00:28;;;;;;;8.18;7.50;;;;;;;26.04;46.42;95340.53;6278072;27;109181;-64
2023/08/15 13:03:31;;;;;;;7.80;7.10;;;;;;;26.06;46.60;95337.56;6240595;27;110576;-63
2023/08/15 13:06:34;;;;;;;7.55;7.05;;;;;;;26.05;46.23;95327.94;6225765;27;109121;-63
2023/08/15 13:09:37;;;;;;;7.07;6.57;;;;;;;26.04;46.41;95329.03;6248113;27;109045;-63
2023/08/15 13:12:42;;;;;;;7.27;6.60;;;;;;;26.05;46.39;95327.94;6244737;27;109049;-63
2023/08/15 13:15:45;;;;;;;8.05;7.35;;;;;;;26.08;46.47;95325.41;6249254;27;109418;-63
2023/08/15 13:18:48;;;;;;;7.63;7.03;;;;;;;26.08;46.48;95327.28;6245102;27;109209;-67
2023/08/15 13:21:51;;;;;;;8.82;7.93;;;;;;;26.10;47.38;95328.53;6251278;27;109245;-62
2023/08/15 13:24:54;;;;;;;8.98;8.27;;;;;;;26.09;47.41;95336.91;6254202;27;109087;-64
2023/08/15 13:27:59;;;;;;;11.60;8.80;;;;;;;25.92;46.58;95337.75;6241202;27;109045;-65
2023/08/15 13:31:02;;;;;;;9.68;8.40;;;;;;;25.86;47.54;95334.44;6249017;27;110789;-70
2023/08/15 13:34:05;;;;;;;9.10;8.20;;;;;;;26.00;47.08;95336.94;6244490;27;108972;-71
2023/08/15 13:37:09;;;;;;;8.85;8.05;;;;;;;26.08;46.93;95335.34;6244143;27;109311;-70
2023/08/15 13:40:12;;;;;;;9.77;7.85;;;;;;;26.12;47.06;95331.69;6241261;27;109036;-70
2023/08/15 13:43:17;;;;;;;8.80;8.00;;;;;;;26.08;46.86;95324.63;6246808;27;109142;-71
2023/08/15 13:46:20;;;;;;;8.70;8.00;;;;;;;26.07;46.55;95328.41;6240192;27;109066;-69
2023/08/15 13:49:24;;;;;;;9.33;8.60;;;;;;;26.02;46.71;95324.00;6256964;27;109171;-68
2023/08/15 13:52:27;;;;;;;9.60;8.80;;;;;;;26.02;47.07;95307.13;6244324;27;108940;-69
2023/08/15 13:55:30;;;;;;;9.70;8.80;;;;;;;26.06;46.82;95302.69;6246820;27;109196;-70
2023/08/15 13:58:35;;;;;;;9.20;8.40;;;;;;;26.12;46.53;95310.22;6283997;27;109608;-70
2023/08/15 14:01:38;;;;;;;10.00;9.10;;;;;;;26.17;46.96;95317.28;6268613;27;109051;-69
2023/08/15 14:04:41;;;;;;;9.57;8.75;;;;;;;26.11;46.96;95319.38;6256682;27;109027;-68
2023/08/15 14:07:44;;;;;;;9.55;8.75;;;;;;;26.12;46.44;95312.91;6261935;27;109009;-67
2023/08/15 14:10:48;;;;;;;9.77;8.87;;;;;;;26.14;46.55;95302.63;6244173;27;110201;-66